CST,Max TemperatureF,Mean TemperatureF,Min TemperatureF,Max Dew PointF,MeanDew PointF,Min DewpointF,Max Humidity, Mean Humidity, Min Humidity, Max Sea Level PressureIn, Mean Sea Level PressureIn, Min Sea Level PressureIn, Max VisibilityMiles, Mean VisibilityMiles, Min VisibilityMiles, Max Wind SpeedMPH, Mean Wind SpeedMPH, Max Gust SpeedMPH,PrecipitationIn, CloudCover, Events, WindDirDegrees
2012-11-1,44,38,32,28,20,10,81,48,31,29.95,29.87,29.83,10,10,7,13,6,20,0.00,6,,309
2012-11-2,42,35,28,28,25,21,100,70,42,30.19,30.08,29.95,10,10,10,12,6,,0.00,0,,349
2012-11-3,42,35,28,28,25,23,87,72,49,30.25,30.22,30.18,10,10,10,9,4,,0.00,3,,17
2012-11-4,42,35,28,28,24,23,87,70,46,30.26,30.23,30.19,10,10,7,8,3,,0.00,1,,17
2012-11-5,41,34,26,32,28,23,93,80,61,30.23,30.19,30.09,10,10,4,8,5,,0.00,6,Snow,44
2012-11-6,37,32,28,36,31,27,100,91,75,30.10,29.95,29.86,10,6,1,15,7,16,0.01,7,Rain,146
2012-11-7,41,37,33,37,36,34,100,95,81,30.16,30.07,29.90,7,3,0,8,3,,0.00,8,Fog-Rain,351
2012-11-8,46,40,33,36,33,30,100,80,57,30.18,30.11,30.05,10,8,2,16,5,21,0.00,4,,173
2012-11-9,48,40,32,41,37,32,100,87,62,30.10,30.05,30.01,7,4,2,12,6,16,0.00,7,,86
2012-11-10,62,53,44,52,45,39,87,70,52,30.03,29.88,29.77,10,8,4,26,12,31,0.00,4,Rain,137
2012-11-11,60,46,33,55,46,34,100,76,59,29.90,29.78,29.64,10,9,3,28,18,36,0.76,5,Rain,190
2012-11-12,33,28,24,32,19,14,100,69,55,30.29,30.07,29.89,10,10,10,25,15,30,0.00,7,Snow,245
2012-11-13,35,27,19,23,18,12,86,66,48,30.46,30.41,30.30,10,10,10,10,6,,0.00,0,,207
2012-11-14,42,36,30,27,24,21,80,64,46,30.46,30.40,30.33,10,10,10,18,9,23,0.00,2,,161
2012-11-15,50,40,30,30,28,27,87,69,40,30.35,30.31,30.26,10,10,7,12,8,,0.00,0,,173
2012-11-16,48,39,30,36,31,27,100,82,58,30.47,30.44,30.35,10,9,5,10,4,,0.00,2,,55
2012-11-17,51,42,32,36,31,28,100,77,43,30.51,30.47,30.43,10,6,0,12,7,,0.00,2,Fog-Snow,152
2012-11-18,53,42,32,32,30,25,93,66,33,30.43,30.36,30.29,10,8,4,12,8,,0.00,0,,137
2012-11-19,51,44,37,45,35,30,100,70,47,30.29,30.18,30.09,10,8,2,10,7,,0.22,4,Rain,140
2012-11-20,53,44,33,45,40,34,100,82,54,30.16,30.12,30.07,10,6,0,6,2,,0.00,3,Fog,276
2012-11-21,51,42,33,46,37,34,100,86,58,30.19,30.11,30.01,10,5,0,16,6,21,0.00,4,Fog-Snow,177
2012-11-22,60,50,37,43,38,28,81,63,42,30.01,29.81,29.69,10,9,5,23,15,32,0.00,2,,195
2012-11-23,37,32,26,27,16,12,70,58,51,30.20,30.02,29.80,10,10,10,26,17,39,0.00,8,Snow,285
2012-11-24,30,26,23,19,14,10,64,60,47,30.24,30.12,29.90,10,10,10,13,9,22,0.00,6,Snow,249
2012-11-25,35,30,26,21,19,12,74,62,48,30.09,29.90,29.82,10,10,10,14,8,18,0.00,3,,264
2012-11-26,30,22,15,21,12,5,80,61,37,30.36,30.24,30.09,10,10,10,12,5,16,0.00,3,,290
2012-11-27,30,21,12,12,9,5,79,56,40,30.36,30.28,30.19,10,10,10,16,5,21,0.00,2,,216
2012-11-28,37,29,21,21,16,12,74,60,45,30.35,30.26,30.19,10,10,10,12,6,,0.00,0,,232
2012-11-29,46,37,28,32,26,19,87,66,46,30.20,30.13,30.07,10,9,5,10,7,,0.00,1,,139
2012-11-30,41,38,35,34,33,32,93,84,76,30.20,30.14,30.08,7,5,3,14,9,20,0.00,8,,58